Flight Track Log - Related Links

Times and Time Zones

All times are in EDT time to prevent confusion due to time zone crossing. See the N633WC flight status page for this flight to view local times or setup timezone preferences in your user account.

Time Position Orientation Groundspeed Altitude Reporting Facility
EDT Latitude Longitude Course Direction KTS MPH feet Rate Location/Type
Wed 08:27:02 PM 41.5511 -93.6636 312° West 147 169 1,400  Level Minneapolis Center
Wed 08:27:32 PM 41.5661 -93.6856 312° West 147 169 2,500 1,938 Climbing Minneapolis Center
Wed 08:28:07 PM 41.5739 -93.7147 290° West 141 162 3,500 1,869 Climbing Minneapolis Center
Wed 08:28:33 PM 41.5914 -93.7239 339° North 142 163 4,400 1,839 Climbing Minneapolis Center
Wed 08:29:09 PM 41.5900 -93.7625 267° West 148 170 5,400 1,423 Climbing Minneapolis Center
Wed 08:30:10 PM 41.5844 -93.8217 263° West 157 181 6,700 1,220 Climbing Minneapolis Center
Wed 08:31:12 PM 41.5781 -93.8939 263° West 179 206 7,900 1,306 Climbing Minneapolis Center
Wed 08:32:14 PM 41.5700 -93.9600 261° West 180 207 9,400 1,258 Climbing Minneapolis Center
Wed 08:33:16 PM 41.5625 -94.0214 261° West 178 205 10,500 1,024 Climbing Minneapolis Center
Wed 08:34:17 PM 41.5531 -94.0933 260° West 192 221 11,500 1,073 Climbing Minneapolis Center
Wed 08:35:19 PM 41.5458 -94.1681 263° West 201 231 12,700 1,306 Climbing Minneapolis Center
Wed 08:36:21 PM 41.5344 -94.2506 260° West 200 230 14,200 1,210 Climbing Minneapolis Center
Wed 08:37:23 PM 41.5258 -94.3186 260° West 192 221 15,200 968 Climbing Minneapolis Center
Wed 08:38:25 PM 41.5189 -94.3903 263° West 192 221 16,200 1,024 Climbing Minneapolis Center
Wed 08:39:26 PM 41.5131 -94.4611 264° West 192 221 17,300 871 Climbing Minneapolis Center
Wed 08:40:29 PM 41.5042 -94.5292 260° West 191 220 18,000 624 Climbing Minneapolis Center
Wed 08:41:31 PM 41.4933 -94.5992 258° West 191 220 18,600 677 Climbing Minneapolis Center
Wed 08:42:33 PM 41.4842 -94.6856 262° West 194 223 19,400 677 Climbing Minneapolis Center
Wed 08:43:35 PM 41.4736 -94.7578 259° West 195 224 20,000 290 Climbing Minneapolis Center
Wed 08:44:37 PM 41.4647 -94.8336 261° West 205 236 20,000  Level Minneapolis Center
Wed 08:45:39 PM 41.4556 -94.9139 261° West 215 247 20,000  Level Minneapolis Center
Wed 08:46:41 PM 41.4439 -94.9961 259° West 222 255 20,000  Level Minneapolis Center
Wed 08:47:43 PM 41.4347 -95.0753 261° West 222 255 20,000  Level Minneapolis Center
Wed 08:48:45 PM 41.4236 -95.1578 260° West 223 257 20,000  Level Minneapolis Center
Wed 08:49:47 PM 41.4100 -95.2569 260° West 224 258 20,000  Level Minneapolis Center
Wed 08:50:49 PM 41.3989 -95.3392 260° West 224 258 20,000  Level Minneapolis Center
Wed 08:51:51 PM 41.3886 -95.4214 261° West 224 258 20,000  Level Minneapolis Center
Wed 08:52:53 PM 41.3781 -95.5033 260° West 224 258 20,000  Level Minneapolis Center
Wed 08:53:55 PM 41.3664 -95.5853 259° West 224 258 20,000  Level Minneapolis Center
Wed 08:54:57 PM 41.3531 -95.6844 260° West 225 259 20,000  Level Minneapolis Center
Wed 08:55:59 PM 41.3422 -95.7664 260° West 225 259 20,000  Level Minneapolis Center
Wed 08:57:01 PM 41.3311 -95.8483 260° West 225 259 20,000  Level Minneapolis Center
Wed 08:58:03 PM 41.3217 -95.9283 261° West 221 254 20,000  Level Minneapolis Center
Wed 08:59:05 PM 41.3097 -96.0103 259° West 222 255 20,000  Level Minneapolis Center
Wed 09:00:08 PM 41.2983 -96.0925 260° West 223 257 20,000  Level Minneapolis Center
Wed 09:02:12 PM 41.2719 -96.2731 259° West 224 258 20,000  Level Minneapolis Center
Wed 09:03:14 PM 41.2639 -96.3436 261° West 223 257 20,000  Level Minneapolis Center
Wed 09:04:16 PM 41.2494 -96.4422 259° West 223 257 20,000  Level Minneapolis Center
Wed 09:05:18 PM 41.2383 -96.5219 260° West 223 257 20,000  Level Minneapolis Center
Wed 09:06:20 PM 41.2267 -96.6036 259° West 223 257 20,000  Level Minneapolis Center
Wed 09:07:22 PM 41.2150 -96.6844 259° West 223 257 20,000  Level Minneapolis Center
Wed 09:08:24 PM 41.2039 -96.7650 260° West 223 257 20,000  Level Minneapolis Center
Wed 09:09:26 PM 41.1914 -96.8453 258° West 222 255 20,000  Level Minneapolis Center
Wed 09:10:29 PM 41.1806 -96.9247 260° West 221 254 20,000 -240 Level Minneapolis Center
Wed 09:11:31 PM 41.1667 -97.0214 259° West 221 254 19,500 -1,306 Descending Minneapolis Center
Wed 09:12:33 PM 41.1542 -97.1192 260° West 265 305 17,300 -1,742 Descending Minneapolis Center
Wed 09:13:35 PM 41.1383 -97.2150 258° West 270 311 15,900 -1,355 Descending Minneapolis Center
Wed 09:14:37 PM 41.1231 -97.3031 257° West 251 289 14,500 -1,597 Descending Minneapolis Center
Wed 09:15:39 PM 41.1078 -97.4056 259° West 251 289 12,600 -1,500 Descending Minneapolis Center
Wed 09:16:41 PM 41.0953 -97.4972 260° West 252 290 11,400 -1,210 Descending Minneapolis Center
Wed 09:17:43 PM 41.0806 -97.5850 257° West 250 288 10,100 -1,161 Descending Minneapolis Center
Wed 09:18:45 PM 41.0658 -97.6733 258° West 247 284 9,000 -968 Descending Minneapolis Center
Wed 09:19:47 PM 41.0528 -97.7594 259° West 244 281 8,100 -871 Descending Minneapolis Center
Wed 09:20:49 PM 41.0375 -97.8594 259° West 236 272 7,200 -871 Descending Minneapolis Center
Wed 09:21:51 PM 41.0250 -97.9425 259° West 233 268 6,300 -823 Descending Minneapolis Center
Wed 09:22:53 PM 41.0119 -98.0269 258° West 233 268 5,500 -774 Descending Minneapolis Center

Login

Don't have an account? Register now (free) for customized features, flight alerts, and more!